aviador You're here:

CZVL Decoded Metar

Edmonton / Villeneuve in Canada
Report Time2018-01-19 16:00:00
UTC Time2018-01-19 16:56:34
Flight Rules vfr VFR
Wind270° at 09 kt
W.Decomp.*RWY 26: 9.0 kt HW 0.8 kt LCW
RWY 34: 0.8 kt HW 9 kt LCW
W.Rank270° ranks 8
Current wind is above 270° avg. (7.4)
Visibility9999 m
Phenomena:N/A
Clouds:Few 065 Hf
Expected CloudBase > 3,200 ft AGL from Temp-Dew spread
CeilingNone
Temp01°C
Dew Point-7°C (56% RH)
AAT-5.0°C
QNH997 hPa
Raw Report
METAR CZVL 191600Z AUTO 27009KT 9SM FEW065 01/M07 A2945 RMK SLP997=

Extra information for CZVL:More info

Metar Taf Metar & Taf Last 4 Metars F.Rules Stats Wind Profile Meteogram Temp Stats Metar ALERT Operation Metar Decoded Social comments